sensor_id;sensor_type;location;lat;lon;timestamp;P1;durP1;ratioP1;P2;durP2;ratioP2
353;SDS011;165;53.592;10.044;2023-02-11T00:00:03;42.57;;;25.33;;
353;SDS011;165;53.592;10.044;2023-02-11T00:02:30;46.60;;;28.17;;
353;SDS011;165;53.592;10.044;2023-02-11T00:04:56;36.93;;;23.10;;
353;SDS011;165;53.592;10.044;2023-02-11T00:07:21;43.20;;;24.77;;
353;SDS011;165;53.592;10.044;2023-02-11T00:09:47;43.00;;;23.73;;
353;SDS011;165;53.592;10.044;2023-02-11T00:12:12;40.70;;;24.37;;
353;SDS011;165;53.592;10.044;2023-02-11T00:14:37;38.43;;;23.70;;
353;SDS011;165;53.592;10.044;2023-02-11T00:17:03;35.10;;;22.10;;
353;SDS011;165;53.592;10.044;2023-02-11T00:19:29;38.73;;;24.17;;
353;SDS011;165;53.592;10.044;2023-02-11T00:21:54;39.00;;;24.70;;
353;SDS011;165;53.592;10.044;2023-02-11T00:24:20;41.07;;;26.77;;
353;SDS011;165;53.592;10.044;2023-02-11T00:26:45;44.03;;;24.83;;
353;SDS011;165;53.592;10.044;2023-02-11T00:29:10;38.77;;;24.73;;
353;SDS011;165;53.592;10.044;2023-02-11T00:31:36;38.43;;;24.63;;
353;SDS011;165;53.592;10.044;2023-02-11T00:34:01;40.87;;;23.77;;
353;SDS011;165;53.592;10.044;2023-02-11T00:36:27;38.30;;;23.17;;
353;SDS011;165;53.592;10.044;2023-02-11T00:38:54;45.50;;;25.37;;
353;SDS011;165;53.592;10.044;2023-02-11T00:41:20;38.77;;;23.90;;
353;SDS011;165;53.592;10.044;2023-02-11T00:43:47;36.57;;;23.00;;
353;SDS011;165;53.592;10.044;2023-02-11T00:46:13;54.47;;;26.50;;
353;SDS011;165;53.592;10.044;2023-02-11T00:48:38;39.87;;;25.63;;
353;SDS011;165;53.592;10.044;2023-02-11T00:51:04;43.50;;;25.67;;
353;SDS011;165;53.592;10.044;2023-02-11T00:53:31;42.80;;;25.33;;
353;SDS011;165;53.592;10.044;2023-02-11T00:55:56;42.90;;;25.83;;
353;SDS011;165;53.592;10.044;2023-02-11T00:58:22;51.57;;;26.57;;
353;SDS011;165;53.592;10.044;2023-02-11T01:00:47;44.83;;;25.70;;
353;SDS011;165;53.592;10.044;2023-02-11T01:03:13;46.10;;;25.07;;
353;SDS011;165;53.592;10.044;2023-02-11T01:05:39;53.83;;;28.27;;
353;SDS011;165;53.592;10.044;2023-02-11T01:08:04;53.27;;;27.10;;
353;SDS011;165;53.592;10.044;2023-02-11T01:10:30;54.63;;;26.83;;
353;SDS011;165;53.592;10.044;2023-02-11T01:12:55;43.83;;;26.93;;
353;SDS011;165;53.592;10.044;2023-02-11T01:15:21;48.23;;;26.53;;
353;SDS011;165;53.592;10.044;2023-02-11T01:17:47;44.00;;;26.27;;
353;SDS011;165;53.592;10.044;2023-02-11T01:20:14;47.17;;;27.47;;
353;SDS011;165;53.592;10.044;2023-02-11T01:22:42;53.80;;;29.43;;
353;SDS011;165;53.592;10.044;2023-02-11T01:25:08;45.63;;;26.97;;
353;SDS011;165;53.592;10.044;2023-02-11T01:27:33;47.10;;;27.73;;
353;SDS011;165;53.592;10.044;2023-02-11T01:29:59;59.60;;;29.07;;
353;SDS011;165;53.592;10.044;2023-02-11T01:32:25;46.87;;;28.33;;
353;SDS011;165;53.592;10.044;2023-02-11T01:34:50;47.63;;;26.50;;
353;SDS011;165;53.592;10.044;2023-02-11T01:37:16;51.07;;;28.63;;
353;SDS011;165;53.592;10.044;2023-02-11T01:39:41;53.07;;;30.50;;
353;SDS011;165;53.592;10.044;2023-02-11T01:42:09;52.17;;;29.27;;
353;SDS011;165;53.592;10.044;2023-02-11T01:44:39;41.87;;;27.70;;
353;SDS011;165;53.592;10.044;2023-02-11T01:47:05;51.87;;;28.67;;
353;SDS011;165;53.592;10.044;2023-02-11T01:49:31;59.13;;;28.67;;
353;SDS011;165;53.592;10.044;2023-02-11T01:52:01;56.93;;;29.47;;
353;SDS011;165;53.592;10.044;2023-02-11T01:54:32;48.27;;;28.50;;
353;SDS011;165;53.592;10.044;2023-02-11T01:57:01;78.27;;;30.93;;
353;SDS011;165;53.592;10.044;2023-02-11T01:59:31;47.63;;;28.27;;
353;SDS011;165;53.592;10.044;2023-02-11T02:02:03;46.23;;;26.13;;
353;SDS011;165;53.592;10.044;2023-02-11T02:04:34;41.30;;;25.33;;
353;SDS011;165;53.592;10.044;2023-02-11T02:07:07;46.93;;;27.30;;
353;SDS011;165;53.592;10.044;2023-02-11T02:09:39;45.47;;;27.47;;
353;SDS011;165;53.592;10.044;2023-02-11T02:12:07;52.53;;;30.23;;
353;SDS011;165;53.592;10.044;2023-02-11T02:14:36;48.27;;;28.37;;
353;SDS011;165;53.592;10.044;2023-02-11T02:17:03;55.40;;;30.50;;
353;SDS011;165;53.592;10.044;2023-02-11T02:22:34;50.63;;;28.30;;
353;SDS011;165;53.592;10.044;2023-02-11T02:31:32;47.00;;;27.97;;
353;SDS011;165;53.592;10.044;2023-02-11T02:34:21;52.73;;;29.53;;
353;SDS011;165;53.592;10.044;2023-02-11T02:37:03;52.57;;;28.53;;
353;SDS011;165;53.592;10.044;2023-02-11T02:39:34;53.13;;;28.90;;
353;SDS011;165;53.592;10.044;2023-02-11T02:42:01;48.70;;;29.57;;
353;SDS011;165;53.592;10.044;2023-02-11T02:44:27;43.53;;;26.70;;
353;SDS011;165;53.592;10.044;2023-02-11T02:46:53;53.20;;;29.27;;
353;SDS011;165;53.592;10.044;2023-02-11T02:49:19;49.80;;;27.90;;
353;SDS011;165;53.592;10.044;2023-02-11T02:59:56;50.00;;;28.00;;
353;SDS011;165;53.592;10.044;2023-02-11T03:02:45;45.30;;;27.70;;
353;SDS011;165;53.592;10.044;2023-02-11T03:08:07;47.03;;;26.87;;
353;SDS011;165;53.592;10.044;2023-02-11T03:10:42;46.00;;;27.50;;
353;SDS011;165;53.592;10.044;2023-02-11T03:13:10;46.97;;;26.83;;
353;SDS011;165;53.592;10.044;2023-02-11T03:15:40;46.70;;;27.40;;
353;SDS011;165;53.592;10.044;2023-02-11T03:18:08;37.40;;;24.40;;
353;SDS011;165;53.592;10.044;2023-02-11T03:20:39;44.10;;;24.43;;
353;SDS011;165;53.592;10.044;2023-02-11T03:23:10;43.77;;;26.27;;
353;SDS011;165;53.592;10.044;2023-02-11T03:25:41;42.80;;;25.70;;
353;SDS011;165;53.592;10.044;2023-02-11T03:28:47;47.90;;;25.30;;
353;SDS011;165;53.592;10.044;2023-02-11T03:31:16;46.30;;;25.80;;
353;SDS011;165;53.592;10.044;2023-02-11T03:33:56;50.10;;;27.80;;
353;SDS011;165;53.592;10.044;2023-02-11T03:36:35;41.73;;;25.93;;
353;SDS011;165;53.592;10.044;2023-02-11T03:39:05;56.63;;;26.57;;
353;SDS011;165;53.592;10.044;2023-02-11T03:41:33;39.50;;;23.77;;
353;SDS011;165;53.592;10.044;2023-02-11T03:44:00;41.40;;;23.27;;
353;SDS011;165;53.592;10.044;2023-02-11T03:46:29;42.93;;;23.33;;
353;SDS011;165;53.592;10.044;2023-02-11T03:49:01;40.90;;;23.93;;
353;SDS011;165;53.592;10.044;2023-02-11T03:51:30;39.47;;;23.30;;
353;SDS011;165;53.592;10.044;2023-02-11T03:53:57;45.63;;;26.23;;
353;SDS011;165;53.592;10.044;2023-02-11T03:56:26;42.87;;;24.33;;
353;SDS011;165;53.592;10.044;2023-02-11T03:58:54;40.63;;;21.33;;
353;SDS011;165;53.592;10.044;2023-02-11T04:01:20;43.20;;;23.50;;
353;SDS011;165;53.592;10.044;2023-02-11T04:03:45;34.20;;;19.97;;
353;SDS011;165;53.592;10.044;2023-02-11T04:06:11;40.37;;;22.73;;
353;SDS011;165;53.592;10.044;2023-02-11T04:08:36;36.67;;;19.67;;
353;SDS011;165;53.592;10.044;2023-02-11T04:11:02;35.37;;;18.17;;
353;SDS011;165;53.592;10.044;2023-02-11T04:13:28;39.50;;;24.47;;
353;SDS011;165;53.592;10.044;2023-02-11T04:15:54;35.43;;;20.40;;
353;SDS011;165;53.592;10.044;2023-02-11T04:18:19;32.97;;;19.10;;
353;SDS011;165;53.592;10.044;2023-02-11T04:20:44;40.10;;;19.93;;
353;SDS011;165;53.592;10.044;2023-02-11T04:23:10;35.67;;;21.03;;
353;SDS011;165;53.592;10.044;2023-02-11T04:25:35;31.23;;;19.07;;
353;SDS011;165;53.592;10.044;2023-02-11T04:28:01;32.63;;;18.10;;
353;SDS011;165;53.592;10.044;2023-02-11T04:30:27;31.63;;;19.00;;
353;SDS011;165;53.592;10.044;2023-02-11T04:32:52;33.47;;;19.27;;
353;SDS011;165;53.592;10.044;2023-02-11T04:35:18;34.27;;;17.93;;
353;SDS011;165;53.592;10.044;2023-02-11T04:37:44;32.80;;;18.07;;
353;SDS011;165;53.592;10.044;2023-02-11T04:40:09;30.33;;;17.10;;
353;SDS011;165;53.592;10.044;2023-02-11T04:42:35;30.73;;;18.83;;
353;SDS011;165;53.592;10.044;2023-02-11T04:45:01;35.07;;;20.30;;
353;SDS011;165;53.592;10.044;2023-02-11T04:47:26;36.43;;;19.07;;
353;SDS011;165;53.592;10.044;2023-02-11T04:49:52;31.80;;;17.83;;
353;SDS011;165;53.592;10.044;2023-02-11T04:52:18;31.43;;;16.17;;
353;SDS011;165;53.592;10.044;2023-02-11T04:54:43;26.03;;;16.37;;
353;SDS011;165;53.592;10.044;2023-02-11T04:57:08;34.67;;;17.50;;
353;SDS011;165;53.592;10.044;2023-02-11T04:59:34;28.87;;;17.00;;
353;SDS011;165;53.592;10.044;2023-02-11T05:02:00;33.97;;;17.07;;
353;SDS011;165;53.592;10.044;2023-02-11T05:04:25;25.87;;;15.27;;
353;SDS011;165;53.592;10.044;2023-02-11T05:06:51;25.90;;;15.57;;
353;SDS011;165;53.592;10.044;2023-02-11T05:09:16;31.70;;;16.90;;
353;SDS011;165;53.592;10.044;2023-02-11T05:11:42;25.33;;;15.47;;
353;SDS011;165;53.592;10.044;2023-02-11T05:14:07;33.40;;;15.73;;
353;SDS011;165;53.592;10.044;2023-02-11T05:16:33;30.07;;;14.53;;
353;SDS011;165;53.592;10.044;2023-02-11T05:18:59;24.30;;;15.13;;
353;SDS011;165;53.592;10.044;2023-02-11T05:21:24;23.53;;;14.57;;
353;SDS011;165;53.592;10.044;2023-02-11T05:23:50;30.40;;;16.00;;
353;SDS011;165;53.592;10.044;2023-02-11T05:26:16;25.40;;;16.93;;
353;SDS011;165;53.592;10.044;2023-02-11T05:28:42;26.57;;;15.50;;
353;SDS011;165;53.592;10.044;2023-02-11T05:31:08;24.13;;;15.60;;
353;SDS011;165;53.592;10.044;2023-02-11T05:33:35;24.03;;;15.23;;
353;SDS011;165;53.592;10.044;2023-02-11T05:36:01;25.30;;;14.83;;
353;SDS011;165;53.592;10.044;2023-02-11T05:38:28;26.30;;;16.30;;
353;SDS011;165;53.592;10.044;2023-02-11T05:40:56;24.33;;;13.47;;
353;SDS011;165;53.592;10.044;2023-02-11T05:43:22;25.53;;;13.87;;
353;SDS011;165;53.592;10.044;2023-02-11T05:45:47;23.30;;;14.83;;
353;SDS011;165;53.592;10.044;2023-02-11T05:48:13;28.57;;;14.60;;
353;SDS011;165;53.592;10.044;2023-02-11T05:50:39;29.33;;;16.60;;
353;SDS011;165;53.592;10.044;2023-02-11T05:53:05;27.13;;;15.57;;
353;SDS011;165;53.592;10.044;2023-02-11T05:55:31;21.23;;;14.33;;
353;SDS011;165;53.592;10.044;2023-02-11T05:57:56;22.87;;;14.47;;
353;SDS011;165;53.592;10.044;2023-02-11T06:00:22;26.57;;;16.63;;
353;SDS011;165;53.592;10.044;2023-02-11T06:02:48;25.07;;;14.63;;
353;SDS011;165;53.592;10.044;2023-02-11T06:05:13;22.90;;;15.30;;
353;SDS011;165;53.592;10.044;2023-02-11T06:07:39;33.00;;;17.30;;
353;SDS011;165;53.592;10.044;2023-02-11T06:10:04;24.07;;;16.77;;
353;SDS011;165;53.592;10.044;2023-02-11T06:12:30;32.17;;;17.93;;
353;SDS011;165;53.592;10.044;2023-02-11T06:14:56;36.57;;;22.30;;
353;SDS011;165;53.592;10.044;2023-02-11T06:17:21;26.20;;;17.33;;
353;SDS011;165;53.592;10.044;2023-02-11T06:19:47;28.10;;;17.97;;
353;SDS011;165;53.592;10.044;2023-02-11T06:22:12;28.03;;;20.00;;
353;SDS011;165;53.592;10.044;2023-02-11T06:24:38;31.27;;;18.30;;
353;SDS011;165;53.592;10.044;2023-02-11T06:27:03;26.43;;;17.97;;
353;SDS011;165;53.592;10.044;2023-02-11T06:29:29;28.67;;;18.17;;
353;SDS011;165;53.592;10.044;2023-02-11T06:31:55;29.30;;;18.10;;
353;SDS011;165;53.592;10.044;2023-02-11T06:34:20;23.73;;;16.70;;
353;SDS011;165;53.592;10.044;2023-02-11T06:36:46;28.33;;;18.90;;
353;SDS011;165;53.592;10.044;2023-02-11T06:39:11;28.30;;;18.17;;
353;SDS011;165;53.592;10.044;2023-02-11T06:41:37;23.23;;;17.10;;
353;SDS011;165;53.592;10.044;2023-02-11T06:44:03;26.87;;;18.40;;
353;SDS011;165;53.592;10.044;2023-02-11T06:46:28;27.70;;;18.40;;
353;SDS011;165;53.592;10.044;2023-02-11T06:48:54;25.73;;;15.50;;
353;SDS011;165;53.592;10.044;2023-02-11T06:51:19;21.70;;;15.70;;
353;SDS011;165;53.592;10.044;2023-02-11T06:53:46;21.17;;;17.17;;
353;SDS011;165;53.592;10.044;2023-02-11T06:56:13;24.50;;;14.80;;
353;SDS011;165;53.592;10.044;2023-02-11T06:58:40;20.90;;;13.83;;
353;SDS011;165;53.592;10.044;2023-02-11T07:01:07;18.60;;;13.37;;
353;SDS011;165;53.592;10.044;2023-02-11T07:03:38;23.57;;;14.93;;
353;SDS011;165;53.592;10.044;2023-02-11T07:06:05;19.87;;;13.70;;
353;SDS011;165;53.592;10.044;2023-02-11T07:08:32;24.00;;;14.67;;
353;SDS011;165;53.592;10.044;2023-02-11T07:10:59;26.83;;;15.80;;
353;SDS011;165;53.592;10.044;2023-02-11T07:13:24;22.20;;;12.43;;
353;SDS011;165;53.592;10.044;2023-02-11T07:15:53;18.37;;;13.30;;
353;SDS011;165;53.592;10.044;2023-02-11T07:18:18;19.50;;;12.97;;
353;SDS011;165;53.592;10.044;2023-02-11T07:20:44;20.70;;;13.47;;
353;SDS011;165;53.592;10.044;2023-02-11T07:23:09;17.07;;;12.43;;
353;SDS011;165;53.592;10.044;2023-02-11T07:25:35;25.90;;;13.40;;
353;SDS011;165;53.592;10.044;2023-02-11T07:28:00;29.77;;;14.67;;
353;SDS011;165;53.592;10.044;2023-02-11T07:30:27;30.10;;;13.63;;
353;SDS011;165;53.592;10.044;2023-02-11T07:32:52;22.27;;;14.03;;
353;SDS011;165;53.592;10.044;2023-02-11T07:35:18;17.20;;;12.53;;
353;SDS011;165;53.592;10.044;2023-02-11T07:37:43;22.10;;;15.07;;
353;SDS011;165;53.592;10.044;2023-02-11T07:40:09;27.67;;;15.03;;
353;SDS011;165;53.592;10.044;2023-02-11T07:42:35;24.90;;;15.33;;
353;SDS011;165;53.592;10.044;2023-02-11T07:45:00;28.37;;;16.83;;
353;SDS011;165;53.592;10.044;2023-02-11T07:47:26;31.33;;;17.17;;
353;SDS011;165;53.592;10.044;2023-02-11T07:49:51;24.60;;;16.50;;
353;SDS011;165;53.592;10.044;2023-02-11T07:52:17;29.73;;;15.80;;
353;SDS011;165;53.592;10.044;2023-02-11T07:54:43;23.47;;;15.50;;
353;SDS011;165;53.592;10.044;2023-02-11T07:57:09;27.47;;;16.20;;
353;SDS011;165;53.592;10.044;2023-02-11T07:59:35;27.33;;;16.40;;
353;SDS011;165;53.592;10.044;2023-02-11T08:02:00;25.23;;;14.93;;
353;SDS011;165;53.592;10.044;2023-02-11T08:04:25;27.23;;;15.10;;
353;SDS011;165;53.592;10.044;2023-02-11T08:06:51;25.77;;;15.97;;
353;SDS011;165;53.592;10.044;2023-02-11T08:09:17;26.80;;;15.13;;
353;SDS011;165;53.592;10.044;2023-02-11T08:11:50;28.53;;;15.37;;
353;SDS011;165;53.592;10.044;2023-02-11T08:14:24;23.80;;;14.60;;
353;SDS011;165;53.592;10.044;2023-02-11T08:16:49;28.53;;;15.20;;
353;SDS011;165;53.592;10.044;2023-02-11T08:19:15;27.97;;;16.40;;
353;SDS011;165;53.592;10.044;2023-02-11T08:21:41;24.60;;;15.90;;
353;SDS011;165;53.592;10.044;2023-02-11T08:24:07;26.60;;;14.20;;
353;SDS011;165;53.592;10.044;2023-02-11T08:26:34;27.80;;;17.10;;
353;SDS011;165;53.592;10.044;2023-02-11T08:29:00;30.60;;;16.40;;
353;SDS011;165;53.592;10.044;2023-02-11T08:31:31;28.13;;;18.83;;
353;SDS011;165;53.592;10.044;2023-02-11T08:33:59;25.07;;;16.17;;
353;SDS011;165;53.592;10.044;2023-02-11T08:36:26;29.97;;;16.90;;
353;SDS011;165;53.592;10.044;2023-02-11T08:38:54;29.50;;;18.20;;
353;SDS011;165;53.592;10.044;2023-02-11T08:41:20;28.90;;;17.95;;
353;SDS011;165;53.592;10.044;2023-02-11T08:43:46;24.07;;;15.20;;
353;SDS011;165;53.592;10.044;2023-02-11T08:46:12;26.07;;;16.90;;
353;SDS011;165;53.592;10.044;2023-02-11T08:48:39;27.87;;;16.30;;
353;SDS011;165;53.592;10.044;2023-02-11T08:51:06;22.10;;;14.50;;
353;SDS011;165;53.592;10.044;2023-02-11T08:53:32;32.70;;;16.80;;
353;SDS011;165;53.592;10.044;2023-02-11T08:55:57;29.00;;;16.87;;
353;SDS011;165;53.592;10.044;2023-02-11T08:58:23;23.17;;;14.80;;
353;SDS011;165;53.592;10.044;2023-02-11T09:00:48;25.83;;;14.77;;
353;SDS011;165;53.592;10.044;2023-02-11T09:03:14;24.63;;;15.13;;
353;SDS011;165;53.592;10.044;2023-02-11T09:05:41;25.93;;;15.67;;
353;SDS011;165;53.592;10.044;2023-02-11T09:08:13;22.87;;;14.83;;
353;SDS011;165;53.592;10.044;2023-02-11T09:10:59;22.73;;;14.63;;
353;SDS011;165;53.592;10.044;2023-02-11T09:13:25;26.23;;;15.67;;
353;SDS011;165;53.592;10.044;2023-02-11T09:15:50;26.80;;;14.50;;
353;SDS011;165;53.592;10.044;2023-02-11T09:18:16;23.83;;;14.63;;
353;SDS011;165;53.592;10.044;2023-02-11T09:20:41;30.70;;;17.33;;
353;SDS011;165;53.592;10.044;2023-02-11T09:23:06;24.50;;;14.17;;
353;SDS011;165;53.592;10.044;2023-02-11T09:25:33;21.20;;;14.40;;
353;SDS011;165;53.592;10.044;2023-02-11T09:27:59;23.80;;;16.37;;
353;SDS011;165;53.592;10.044;2023-02-11T09:30:25;23.53;;;15.80;;
353;SDS011;165;53.592;10.044;2023-02-11T09:32:50;23.43;;;15.73;;
353;SDS011;165;53.592;10.044;2023-02-11T09:35:16;22.40;;;13.70;;
353;SDS011;165;53.592;10.044;2023-02-11T09:37:41;26.00;;;13.50;;
353;SDS011;165;53.592;10.044;2023-02-11T09:40:07;25.60;;;14.37;;
353;SDS011;165;53.592;10.044;2023-02-11T09:42:44;21.53;;;13.20;;
353;SDS011;165;53.592;10.044;2023-02-11T09:45:20;23.83;;;13.67;;
353;SDS011;165;53.592;10.044;2023-02-11T09:47:55;21.97;;;12.93;;
353;SDS011;165;53.592;10.044;2023-02-11T09:50:38;19.53;;;12.93;;
353;SDS011;165;53.592;10.044;2023-02-11T09:55:39;21.23;;;12.70;;
353;SDS011;165;53.592;10.044;2023-02-11T09:58:13;24.67;;;13.13;;
353;SDS011;165;53.592;10.044;2023-02-11T10:09:05;23.60;;;11.50;;
353;SDS011;165;53.592;10.044;2023-02-11T10:14:18;26.90;;;15.17;;
353;SDS011;165;53.592;10.044;2023-02-11T10:22:48;18.20;;;9.90;;
353;SDS011;165;53.592;10.044;2023-02-11T10:25:23;17.03;;;10.10;;
353;SDS011;165;53.592;10.044;2023-02-11T10:27:51;20.37;;;9.97;;
353;SDS011;165;53.592;10.044;2023-02-11T10:30:24;26.00;;;10.47;;
353;SDS011;165;53.592;10.044;2023-02-11T10:35:54;26.67;;;9.80;;
353;SDS011;165;53.592;10.044;2023-02-11T10:38:19;17.27;;;9.40;;
353;SDS011;165;53.592;10.044;2023-02-11T10:40:48;16.73;;;8.93;;
353;SDS011;165;53.592;10.044;2023-02-11T10:43:17;18.97;;;8.80;;
353;SDS011;165;53.592;10.044;2023-02-11T10:45:48;20.83;;;8.87;;
353;SDS011;165;53.592;10.044;2023-02-11T10:53:47;15.33;;;8.93;;
353;SDS011;165;53.592;10.044;2023-02-11T10:56:20;17.07;;;7.70;;
353;SDS011;165;53.592;10.044;2023-02-11T10:59:04;22.77;;;9.57;;
353;SDS011;165;53.592;10.044;2023-02-11T11:01:49;18.10;;;8.53;;
353;SDS011;165;53.592;10.044;2023-02-11T11:07:08;15.20;;;7.83;;
353;SDS011;165;53.592;10.044;2023-02-11T11:09:51;11.40;;;7.60;;
353;SDS011;165;53.592;10.044;2023-02-11T11:15:15;17.43;;;8.53;;
353;SDS011;165;53.592;10.044;2023-02-11T11:17:41;14.90;;;7.10;;
353;SDS011;165;53.592;10.044;2023-02-11T11:22:40;15.33;;;7.50;;
353;SDS011;165;53.592;10.044;2023-02-11T11:25:23;17.07;;;8.17;;
353;SDS011;165;53.592;10.044;2023-02-11T11:27:52;15.33;;;6.23;;
353;SDS011;165;53.592;10.044;2023-02-11T11:30:19;13.63;;;5.93;;
353;SDS011;165;53.592;10.044;2023-02-11T11:32:45;10.30;;;7.17;;
353;SDS011;165;53.592;10.044;2023-02-11T11:35:22;13.60;;;7.50;;
353;SDS011;165;53.592;10.044;2023-02-11T11:37:53;13.97;;;6.40;;
353;SDS011;165;53.592;10.044;2023-02-11T11:40:24;11.83;;;6.27;;
353;SDS011;165;53.592;10.044;2023-02-11T11:43:02;12.00;;;6.07;;
353;SDS011;165;53.592;10.044;2023-02-11T11:45:38;13.03;;;5.77;;
353;SDS011;165;53.592;10.044;2023-02-11T11:48:26;12.37;;;5.47;;
353;SDS011;165;53.592;10.044;2023-02-11T11:50:57;16.43;;;6.37;;
353;SDS011;165;53.592;10.044;2023-02-11T11:56:15;8.23;;;4.87;;
353;SDS011;165;53.592;10.044;2023-02-11T11:58:47;7.87;;;5.73;;
353;SDS011;165;53.592;10.044;2023-02-11T12:04:25;10.33;;;5.00;;
353;SDS011;165;53.592;10.044;2023-02-11T12:10:30;10.53;;;5.97;;
353;SDS011;165;53.592;10.044;2023-02-11T12:13:23;12.70;;;6.93;;
353;SDS011;165;53.592;10.044;2023-02-11T12:15:55;14.53;;;5.73;;
353;SDS011;165;53.592;10.044;2023-02-11T12:21:53;10.67;;;4.77;;
353;SDS011;165;53.592;10.044;2023-02-11T12:24:43;10.67;;;4.90;;
353;SDS011;165;53.592;10.044;2023-02-11T12:27:24;9.10;;;4.70;;
353;SDS011;165;53.592;10.044;2023-02-11T12:35:47;9.37;;;5.33;;
353;SDS011;165;53.592;10.044;2023-02-11T12:43:41;6.27;;;4.20;;
353;SDS011;165;53.592;10.044;2023-02-11T12:46:13;68.93;;;35.53;;
353;SDS011;165;53.592;10.044;2023-02-11T12:51:33;14.37;;;5.97;;
353;SDS011;165;53.592;10.044;2023-02-11T12:54:31;9.00;;;4.90;;
353;SDS011;165;53.592;10.044;2023-02-11T12:57:16;7.77;;;5.37;;
353;SDS011;165;53.592;10.044;2023-02-11T13:04:50;8.27;;;5.20;;
353;SDS011;165;53.592;10.044;2023-02-11T13:10:00;9.93;;;5.70;;
353;SDS011;165;53.592;10.044;2023-02-11T13:12:38;15.83;;;6.07;;
353;SDS011;165;53.592;10.044;2023-02-11T13:15:12;13.70;;;5.70;;
353;SDS011;165;53.592;10.044;2023-02-11T13:17:56;10.13;;;4.78;;
353;SDS011;165;53.592;10.044;2023-02-11T13:26:04;11.93;;;5.93;;
353;SDS011;165;53.592;10.044;2023-02-11T13:28:44;13.57;;;5.30;;
353;SDS011;165;53.592;10.044;2023-02-11T13:31:16;12.20;;;5.27;;
353;SDS011;165;53.592;10.044;2023-02-11T13:33:51;10.60;;;5.10;;
353;SDS011;165;53.592;10.044;2023-02-11T13:36:21;10.37;;;5.63;;
353;SDS011;165;53.592;10.044;2023-02-11T13:38:55;14.27;;;6.63;;
353;SDS011;165;53.592;10.044;2023-02-11T13:41:31;11.60;;;7.03;;
353;SDS011;165;53.592;10.044;2023-02-11T13:46:50;16.00;;;5.47;;
353;SDS011;165;53.592;10.044;2023-02-11T13:49:26;17.13;;;5.47;;
353;SDS011;165;53.592;10.044;2023-02-11T13:51:54;18.30;;;6.10;;
353;SDS011;165;53.592;10.044;2023-02-11T13:54:24;14.23;;;6.70;;
353;SDS011;165;53.592;10.044;2023-02-11T14:00:00;16.03;;;7.47;;
353;SDS011;165;53.592;10.044;2023-02-11T14:02:34;11.27;;;6.10;;
353;SDS011;165;53.592;10.044;2023-02-11T14:07:30;13.60;;;5.80;;
353;SDS011;165;53.592;10.044;2023-02-11T14:09:57;15.47;;;5.70;;
353;SDS011;165;53.592;10.044;2023-02-11T14:12:33;14.50;;;6.33;;
353;SDS011;165;53.592;10.044;2023-02-11T14:15:00;17.60;;;5.70;;
353;SDS011;165;53.592;10.044;2023-02-11T14:17:45;11.27;;;4.87;;
353;SDS011;165;53.592;10.044;2023-02-11T14:23:15;19.07;;;5.47;;
353;SDS011;165;53.592;10.044;2023-02-11T14:25:51;8.33;;;4.93;;
353;SDS011;165;53.592;10.044;2023-02-11T14:28:39;15.73;;;5.10;;
353;SDS011;165;53.592;10.044;2023-02-11T14:31:10;14.37;;;7.10;;
353;SDS011;165;53.592;10.044;2023-02-11T14:39:30;13.33;;;4.50;;
353;SDS011;165;53.592;10.044;2023-02-11T14:42:20;12.50;;;7.57;;
353;SDS011;165;53.592;10.044;2023-02-11T14:44:48;16.33;;;4.60;;
353;SDS011;165;53.592;10.044;2023-02-11T14:47:17;19.20;;;6.10;;
353;SDS011;165;53.592;10.044;2023-02-11T14:49:47;16.10;;;5.07;;
353;SDS011;165;53.592;10.044;2023-02-11T14:52:23;17.00;;;4.37;;
353;SDS011;165;53.592;10.044;2023-02-11T14:55:00;10.33;;;3.87;;
353;SDS011;165;53.592;10.044;2023-02-11T14:57:29;14.20;;;4.50;;
353;SDS011;165;53.592;10.044;2023-02-11T14:59:59;13.50;;;5.00;;
353;SDS011;165;53.592;10.044;2023-02-11T15:02:36;12.37;;;4.87;;
353;SDS011;165;53.592;10.044;2023-02-11T15:05:21;12.17;;;4.00;;
353;SDS011;165;53.592;10.044;2023-02-11T15:07:50;16.07;;;4.87;;
353;SDS011;165;53.592;10.044;2023-02-11T15:10:34;11.33;;;4.43;;
353;SDS011;165;53.592;10.044;2023-02-11T15:13:05;14.87;;;6.77;;
353;SDS011;165;53.592;10.044;2023-02-11T15:15:32;10.33;;;5.00;;
353;SDS011;165;53.592;10.044;2023-02-11T15:18:03;7.90;;;3.80;;
353;SDS011;165;53.592;10.044;2023-02-11T15:20:30;10.30;;;4.30;;
353;SDS011;165;53.592;10.044;2023-02-11T15:23:01;8.60;;;4.50;;
353;SDS011;165;53.592;10.044;2023-02-11T15:25:31;9.30;;;3.63;;
353;SDS011;165;53.592;10.044;2023-02-11T15:27:57;14.80;;;4.57;;
353;SDS011;165;53.592;10.044;2023-02-11T15:32:52;10.43;;;4.20;;
353;SDS011;165;53.592;10.044;2023-02-11T15:35:19;10.00;;;4.30;;
353;SDS011;165;53.592;10.044;2023-02-11T15:37:45;13.10;;;4.83;;
353;SDS011;165;53.592;10.044;2023-02-11T15:40:14;14.40;;;5.83;;
353;SDS011;165;53.592;10.044;2023-02-11T15:42:51;10.60;;;5.27;;
353;SDS011;165;53.592;10.044;2023-02-11T15:45:25;15.50;;;5.70;;
353;SDS011;165;53.592;10.044;2023-02-11T15:47:55;23.17;;;6.40;;
353;SDS011;165;53.592;10.044;2023-02-11T15:50:28;11.73;;;6.80;;
353;SDS011;165;53.592;10.044;2023-02-11T15:52:55;22.03;;;5.80;;
353;SDS011;165;53.592;10.044;2023-02-11T15:55:23;22.23;;;7.97;;
353;SDS011;165;53.592;10.044;2023-02-11T15:57:55;21.20;;;7.40;;
353;SDS011;165;53.592;10.044;2023-02-11T16:00:23;17.87;;;7.50;;
353;SDS011;165;53.592;10.044;2023-02-11T16:02:51;25.03;;;14.13;;
353;SDS011;165;53.592;10.044;2023-02-11T16:05:26;21.93;;;5.90;;
353;SDS011;165;53.592;10.044;2023-02-11T16:07:57;13.70;;;6.53;;
353;SDS011;165;53.592;10.044;2023-02-11T16:10:26;16.37;;;7.60;;
353;SDS011;165;53.592;10.044;2023-02-11T16:12:55;22.67;;;6.57;;
353;SDS011;165;53.592;10.044;2023-02-11T16:17:58;17.10;;;5.77;;
353;SDS011;165;53.592;10.044;2023-02-11T16:20:25;15.73;;;6.87;;
353;SDS011;165;53.592;10.044;2023-02-11T16:22:50;15.13;;;6.77;;
353;SDS011;165;53.592;10.044;2023-02-11T16:25:17;14.97;;;6.13;;
353;SDS011;165;53.592;10.044;2023-02-11T16:27:47;14.13;;;6.10;;
353;SDS011;165;53.592;10.044;2023-02-11T16:30:22;61.17;;;26.47;;
353;SDS011;165;53.592;10.044;2023-02-11T16:32:51;27.10;;;10.83;;
353;SDS011;165;53.592;10.044;2023-02-11T16:35:19;18.50;;;6.03;;
353;SDS011;165;53.592;10.044;2023-02-11T16:37:45;29.53;;;11.63;;
353;SDS011;165;53.592;10.044;2023-02-11T16:40:10;21.87;;;10.00;;
353;SDS011;165;53.592;10.044;2023-02-11T16:42:36;16.17;;;7.47;;
353;SDS011;165;53.592;10.044;2023-02-11T16:45:02;19.33;;;6.80;;
353;SDS011;165;53.592;10.044;2023-02-11T16:47:28;21.50;;;8.13;;
353;SDS011;165;53.592;10.044;2023-02-11T16:49:54;19.10;;;7.13;;
353;SDS011;165;53.592;10.044;2023-02-11T16:52:20;21.90;;;8.43;;
353;SDS011;165;53.592;10.044;2023-02-11T16:54:46;21.70;;;10.10;;
353;SDS011;165;53.592;10.044;2023-02-11T16:57:15;18.70;;;7.93;;
353;SDS011;165;53.592;10.044;2023-02-11T16:59:48;19.67;;;9.90;;
353;SDS011;165;53.592;10.044;2023-02-11T17:02:16;27.63;;;14.40;;
353;SDS011;165;53.592;10.044;2023-02-11T17:04:45;20.83;;;10.00;;
353;SDS011;165;53.592;10.044;2023-02-11T17:07:11;24.23;;;9.03;;
353;SDS011;165;53.592;10.044;2023-02-11T17:09:37;23.43;;;9.30;;
353;SDS011;165;53.592;10.044;2023-02-11T17:12:02;23.10;;;9.30;;
353;SDS011;165;53.592;10.044;2023-02-11T17:14:28;21.10;;;9.13;;
353;SDS011;165;53.592;10.044;2023-02-11T17:16:54;30.03;;;11.27;;